Terminal Aerodrome Forecast
Issued by NWS Green Bay, WI

Home | Current Version | Previous Version | Graphics & Text | Print | Product List | Glossary On
Versions: 1 2 3 4 5 6 7 8 9 10 11 12 13 14 15 16 17 18 19 20 21 22 23 24 25 26 27 28 29 30 31 32 33 34
907
FTUS43 KGRB 010520
TAFGRB
TAF
KGRB 010520Z 0106/0206 05018G25KT 6SM -RA BR OVC010
      TEMPO 0106/0108 3SM TSRA OVC006CB
     FM010900 06011G17KT 3SM -SHRA BR OVC005
     FM011400 16009G14KT 6SM -SHRA OVC008
     FM011700 19010G18KT P6SM -SHRA SCT015 BKN028
      TEMPO 0122/0202 3SM -SHRA BR BKN015
     FM020200 22008KT 5SM -SHRA BR BKN012=

USA.gov is the U.S. government's official web portal to all federal, state and local government web resources and services.